Wind from 212

Air temperature 10.0° C
Dewpoint 7.6° C

Last reported at 2014-Apr-23 06:37 UTC.
Time now 2014-Apr-23 07:17 UTC

Location: N 40°23' W 003°38'.
View on Google Maps.

See reports from other nearby stations

Tides Stations Pressure Air Temp Water Temp Dewpoint Dewpoint depression Visibility Wind Speed Wind Dir Waves Ship positions

  
sailing weather and tide predictions

DW9106 Madrid ES weather

date/time (UTC)wind fromknots sea level pressurealtimeterstation pressurevisibilityair tempwater tempwave heightnotes
2014-Apr-23 06:37 212 10.0
2014-Apr-23 06:22 212 9.4
2014-Apr-23 06:06 212 9.4
2014-Apr-23 05:51 212 8.9
2014-Apr-23 05:36 243 8.3
2014-Apr-23 05:21 243 8.3
2014-Apr-23 05:06 243 8.3
2014-Apr-23 04:51 243 8.3
2014-Apr-23 04:36 243 8.3
2014-Apr-23 04:21 243 8.3
2014-Apr-23 04:06 243 8.3
2014-Apr-23 03:51 243 8.9
2014-Apr-23 03:36 243 8.9
2014-Apr-23 03:21 243 8.9
2014-Apr-23 03:06 243 8.9
2014-Apr-23 02:51 243 9.4
2014-Apr-23 02:36 243 9.4
2014-Apr-23 02:21 204 10.0
2014-Apr-23 02:06 200 10.0
2014-Apr-23 01:51 194 0 gusting 3 10.0
2014-Apr-23 01:36 249 0 gusting 2 10.0
2014-Apr-23 01:21 213 10.0
2014-Apr-23 01:06 223 0 gusting 3 10.6
2014-Apr-23 00:51 265 10.6
2014-Apr-23 00:36 169 11.1
2014-Apr-23 00:21 186 11.7
2014-Apr-23 00:06 222 0 gusting 3 11.7
2014-Apr-22 23:51 263 0 gusting 3 12.2
2014-Apr-22 23:36 259 1 gusting 4 12.2
2014-Apr-22 23:21 246 0 gusting 7 12.2
2014-Apr-22 23:06 192 2 gusting 8 12.2
2014-Apr-22 22:51 284 2 gusting 6 12.8
2014-Apr-22 22:36 254 1 gusting 5 12.8
2014-Apr-22 22:06 280 1 gusting 8 13.3
2014-Apr-22 21:51 254 1 gusting 7 13.3
2014-Apr-22 21:36 250 1 gusting 6 13.9
2014-Apr-22 21:21 211 3 gusting 9 13.9
2014-Apr-22 21:06 270 2 gusting 9 13.9
2014-Apr-22 20:50 055 2 gusting 9 13.9
2014-Apr-22 20:35 286 5 gusting 12 14.4
2014-Apr-22 20:20 211 3 gusting 9 14.4
2014-Apr-22 20:05 256 2 gusting 8 14.4
2014-Apr-22 19:50 021 2 gusting 7 14.4
2014-Apr-22 19:35 276 2 gusting 7 14.4
2014-Apr-22 19:20 244 1 gusting 9 15.0
2014-Apr-22 19:05 211 3 gusting 10 15.0
2014-Apr-22 18:50 304 4 gusting 10 15.0
2014-Apr-22 18:35 240 4 gusting 11 15.6
2014-Apr-22 18:20 060 4 gusting 11 16.1
2014-Apr-22 18:05 297 4 gusting 13 16.1
2014-Apr-22 17:50 229 6 gusting 13 16.7
2014-Apr-22 17:35 162 5 gusting 9 17.2
2014-Apr-22 17:20 255 4 gusting 13 17.2
2014-Apr-22 17:05 320 2 gusting 10 17.8
2014-Apr-22 16:50 142 4 gusting 14 17.8
2014-Apr-22 16:35 223 2 gusting 14 17.8
2014-Apr-22 16:20 224 3 gusting 13 17.8
2014-Apr-22 16:05 159 2 gusting 11 17.8
2014-Apr-22 15:50 215 3 gusting 10 18.3
2014-Apr-22 15:35 183 2 gusting 13 18.3
2014-Apr-22 15:20 188 4 gusting 12 18.3
2014-Apr-22 15:05 202 1 gusting 7 17.2
2014-Apr-22 14:50 327 2 gusting 13 17.2
2014-Apr-22 14:35 242 2 gusting 10 17.8
2014-Apr-22 14:20 142 5 gusting 9 17.8
2014-Apr-22 14:05 225 1 gusting 6 17.2
2014-Apr-22 13:50 234 3 gusting 12 16.1
2014-Apr-22 13:35 182 2 gusting 10 16.1
2014-Apr-22 13:20 192 1 gusting 8 16.7
2014-Apr-22 13:05 227 3 gusting 8 16.7
2014-Apr-22 12:50 249 5 gusting 12 16.1
2014-Apr-22 12:35 299 0 gusting 6 16.1
2014-Apr-22 12:20 158 3 gusting 7 16.1
2014-Apr-22 12:05 227 2 gusting 6 16.7
2014-Apr-22 11:50 243 4 gusting 8 16.1
2014-Apr-22 11:35 254 4 gusting 7 16.1
2014-Apr-22 11:20 225 3 gusting 7 15.6
2014-Apr-22 11:05 259 3 gusting 10 15.0
2014-Apr-22 10:50 254 3 gusting 7 15.0
2014-Apr-22 10:35 244 4 gusting 13 15.0
2014-Apr-22 10:20 017 4 gusting 11 15.0
2014-Apr-22 10:05 246 4 gusting 11 14.4
2014-Apr-22 09:49 281 3 gusting 7 14.4
2014-Apr-22 09:34 119 3 gusting 7 13.9
2014-Apr-22 09:19 262 2 gusting 7 13.9
2014-Apr-22 09:04 252 3 gusting 8 13.3
2014-Apr-22 08:49 262 3 gusting 7 13.3
2014-Apr-22 08:34 252 2 gusting 7 13.3
2014-Apr-22 08:19 241 4 gusting 6 12.8
2014-Apr-22 08:04 251 0 gusting 5 12.2
2014-Apr-22 07:49 178 11.1
2014-Apr-22 07:34 243 10.0
2014-Apr-22 07:19 171 9.4
2014-Apr-22 07:04 171 8.9
2014-Apr-22 06:49 171 8.3
2014-Apr-22 06:34 171 7.8
2014-Apr-22 06:19 171 7.8
2014-Apr-22 06:04 171 0 gusting 2 7.2
2014-Apr-22 05:49 258 7.2
2014-Apr-22 05:34 258 7.2
2014-Apr-22 05:19 258 7.8
2014-Apr-22 05:04 258 8.3
2014-Apr-22 04:49 258 8.3
2014-Apr-22 04:33 258 8.3
2014-Apr-22 04:18 258 8.9
2014-Apr-22 04:03 229 9.4
2014-Apr-22 03:48 288 9.4
2014-Apr-22 03:33 261 9.4
2014-Apr-22 03:18 262 1 gusting 5 9.4
2014-Apr-22 02:48 261 1 gusting 6 10.0
2014-Apr-22 02:33 290 3 gusting 7 10.0
2014-Apr-22 02:18 311 2 gusting 6 10.0
2014-Apr-22 02:03 265 0 gusting 5 10.0
2014-Apr-22 01:48 289 0 gusting 6 10.0
2014-Apr-22 01:18 263 2 gusting 6 10.0
2014-Apr-22 01:03 253 2 gusting 6 10.0
2014-Apr-22 00:48 274 0 gusting 5 10.0
2014-Apr-22 00:33 259 0 gusting 6 10.0
2014-Apr-22 00:18 262 10.6
2014-Apr-21 23:48 270 1 gusting 6 10.6
2014-Apr-21 23:18 250 0 gusting 4 10.6
2014-Apr-21 23:03 285 2 gusting 6 10.6
2014-Apr-21 22:48 199 1 gusting 6 10.6
2014-Apr-21 22:33 251 2 gusting 6 11.1
2014-Apr-21 22:18 269 0 gusting 3 11.1
2014-Apr-21 22:03 223 11.1
2014-Apr-21 21:48 269 0 gusting 2 11.7
2014-Apr-21 21:33 279 0 gusting 5 11.7
2014-Apr-21 21:18 296 2 gusting 5 11.7
2014-Apr-21 21:03 259 0 gusting 3 11.7
2014-Apr-21 20:48 227 11.7
2014-Apr-21 20:33 257 11.7
2014-Apr-21 20:18 253 0 gusting 6 11.7
2014-Apr-21 20:03 251 11.7
2014-Apr-21 19:47 236 0 gusting 4 11.7
2014-Apr-21 19:32 263 11.7
2014-Apr-21 19:17 280 0 gusting 4 11.7
2014-Apr-21 19:02 238 0 gusting 4 11.7
2014-Apr-21 18:47 240 0 gusting 6 11.7
2014-Apr-21 18:32 298 1 gusting 6 11.7
2014-Apr-21 18:17 249 3 gusting 7 12.2
2014-Apr-21 18:02 250 0 gusting 8 12.2
2014-Apr-21 17:32 260 0 gusting 5 12.8
2014-Apr-21 17:17 267 0 gusting 2 12.8
2014-Apr-21 17:02 233 0 gusting 3 12.8
2014-Apr-21 16:32 240 12.8
2014-Apr-21 16:17 161 0 gusting 3 13.3
2014-Apr-21 16:02 227 0 gusting 2 13.9
2014-Apr-21 15:47 038 13.9
2014-Apr-21 15:32 034 13.3
2014-Apr-21 15:17 034 12.8
2014-Apr-21 15:02 071 0 gusting 6 12.8
2014-Apr-21 14:47 036 0 gusting 4 12.8
2014-Apr-21 14:32 065 1 gusting 5 12.8
2014-Apr-21 14:17 063 1 gusting 5 12.2
2014-Apr-21 14:02 091 12.2
2014-Apr-21 13:47 232 12.8
2014-Apr-21 13:32 046 12.2
2014-Apr-21 13:17 039 0 gusting 2 12.8
2014-Apr-21 13:02 059 0 gusting 2 12.8
2014-Apr-21 12:47 176 13.3
2014-Apr-21 12:32 301 0 gusting 5 13.3
2014-Apr-21 12:17 275 3 gusting 6 13.3
2014-Apr-21 12:02 265 1 gusting 6 12.8
2014-Apr-21 11:47 264 1 gusting 6 11.7
2014-Apr-21 11:32 299 11.1
2014-Apr-21 11:17 245 0 gusting 7 11.1
2014-Apr-21 11:02 226 2 gusting 6 10.6
2014-Apr-21 10:47 267 0 gusting 6 10.6
2014-Apr-21 10:32 273 2 gusting 8 10.6
2014-Apr-21 10:17 179 0 gusting 3 11.1
2014-Apr-21 10:01 171 10.6
2014-Apr-21 09:46 203 0 gusting 4 10.6
2014-Apr-21 09:31 255 0 gusting 4 10.0
2014-Apr-21 09:16 257 10.0
2014-Apr-21 09:01 212 10.0
2014-Apr-21 08:46 235 10.0
2014-Apr-21 08:31 237 10.0
2014-Apr-21 08:16 143 10.0
2014-Apr-21 08:01 217 10.0
2014-Apr-21 07:46 217 9.4
2014-Apr-21 07:31 215 9.4
2014-Apr-21 07:16 227 9.4
2014-Apr-21 07:01 207 0 gusting 2 9.4